LESO/EAS METAR and TAF weather

Enter ICAO airport designator
Station Type Date Time Source
LESO METAR 2023/02/05 13:30 UTC NOAA

LESO 051330Z 04004KT 9999 BKN043 10/05 Q1039


Station Type Date Time Source
LESO Decoded METAR 2023/02/05 13:30 UTC NOAA

San Sebastian / Fuenterrabia, Spain (LESO) 43-21N 001-48W 8M
Feb 05, 2023 - 08:30 AM EST / 2023.02.05 1330 UTC
Wind: from the NE (040 degrees) at 5 MPH (4 KT):0
Visibility: greater than 7 mile(s):0
Sky conditions: mostly cloudy
Temperature: 50 F (10 C)
Dew Point: 41 F (5 C)
Relative Humidity: 71%
Pressure (altimeter): 30.68 in. Hg (1039 hPa)
ob: LESO 051330Z 04004KT 9999 BKN043 10/05 Q1039
cycle: 13

Station Type Date Time Source
LESO TAF 2023/02/05 12:27 UTC NOAA

TAF LESO 051100Z 0512/0612 06006KT 9999 FEW020 BKN040 TX12/0515Z TN05/0607Z PROB30
TEMPO 0602/0608 BKN010

Example: see airport list